Time;durP1;ratioP1;P1;durP2;ratioP2;P2;SDS_P1;SDS_P2;PMS_P1;PMS_P2;Temp;Humidity;BMP_temperature;BMP_pressure;BME280_temperature;BME280_humidity;BME280_pressure;Samples;Min_cycle;Max_cycle;Signal;HPM_P1;HPM_P2
2021/09/13 00:01:08;;;;;;;;;55.00;46.80;;;;;19.93;50.83;101252.88;6331005;22;44900;-93
2021/09/13 00:06:15;;;;;;;;;50.25;43.25;;;;;19.63;50.64;101204.25;6335978;22;45614;-93
2021/09/13 00:08:41;;;;;;;;;47.50;41.00;;;;;19.96;51.35;101260.69;6337064;22;44661;-93
2021/09/13 00:11:50;;;;;;;;;59.50;49.75;;;;;19.78;51.09;101225.44;6337515;22;44863;-93
2021/09/13 00:15:16;;;;;;;;;54.75;46.00;;;;;20.05;50.68;101268.97;6269865;22;44785;-94
2021/09/13 07:15:05;;;;;;;;;62.60;52.00;;;;;19.09;56.56;101214.47;6345781;22;45534;-93
2021/09/13 07:17:31;;;;;;;;;60.00;50.00;;;;;18.89;55.81;101168.56;6312279;22;44736;-91
2021/09/13 07:20:30;;;;;;;;;74.50;64.00;;;;;19.02;56.25;101189.88;6313194;22;44790;-91
2021/09/13 07:23:04;;;;;;;;;62.67;52.00;;;;;18.93;55.50;101161.91;6359483;22;45144;-92
2021/09/13 07:43:52;;;;;;;;;65.40;52.20;;;;;19.59;54.88;101207.34;6298385;22;46427;-92
2021/09/13 07:46:22;;;;;;;;;62.00;51.80;;;;;19.48;55.30;101176.84;6282892;22;44657;-90
2021/09/13 08:07:04;;;;;;;;;72.75;61.75;;;;;20.63;52.33;101194.31;6359540;22;45868;-93
2021/09/13 08:25:03;;;;;;;;;70.00;58.00;;;;;21.21;50.70;101188.84;6325994;22;45111;-92
2021/09/13 08:27:29;;;;;;;;;70.60;61.00;;;;;20.96;51.29;101154.25;6250727;22;44706;-91
2021/09/13 08:29:56;;;;;;;;;65.00;53.80;;;;;20.90;51.19;101125.13;6300828;22;44769;-90
2021/09/13 08:32:24;;;;;;;;;55.75;47.00;;;;;21.15;50.54;101147.06;6275192;22;44873;-90
2021/09/13 08:34:52;;;;;;;;;56.00;47.00;;;;;21.57;49.97;101194.34;6250869;22;46810;-89
2021/09/13 08:37:21;;;;;;;;;47.25;40.00;;;;;21.27;50.47;101115.25;6249817;22;44758;-90
2021/09/13 08:39:50;;;;;;;;;57.67;47.33;;;;;21.75;50.15;101178.13;6249386;22;44586;-91
2021/09/13 08:42:16;;;;;;;;;57.25;48.00;;;;;21.55;49.75;101137.69;6270187;22;44798;-92
2021/09/13 08:44:48;;;;;;;;;57.50;48.00;;;;;21.86;49.91;101178.91;6248981;22;45228;-91
2021/09/13 08:47:33;;;;;;;;;54.50;46.00;;;;;21.60;49.57;101125.53;6252124;22;44608;-91
2021/09/13 08:58:08;;;;;;;;;54.50;45.00;;;;;21.91;49.14;101190.97;6300576;22;44858;-93
2021/09/13 09:00:34;;;;;;;;;62.00;51.25;;;;;21.70;49.40;101169.63;6310218;22;44545;-91
2021/09/13 09:03:24;;;;;;;;;64.50;53.50;;;;;21.53;49.35;101149.66;6308716;22;44756;-91
2021/09/13 09:05:54;;;;;;;;;55.25;46.75;;;;;21.91;49.33;101199.09;6331549;22;45076;-93
2021/09/13 09:08:29;;;;;;;;;61.25;50.25;;;;;21.49;49.47;101137.47;6308215;22;44780;-91
2021/09/13 09:11:11;;;;;;;;;58.75;49.25;;;;;21.93;49.79;101207.06;6312936;22;44715;-92
2021/09/13 09:14:02;;;;;;;;;55.33;46.00;;;;;21.70;49.35;101166.03;6338925;22;44798;-91
2021/09/13 09:16:31;;;;;;;;;;;;;;;22.01;48.45;101211.72;6291306;22;45103;-92
2021/09/13 09:19:18;;;;;;;;;61.00;50.50;;;;;21.72;49.20;101161.34;6364431;22;44712;-92
2021/09/13 09:22:20;;;;;;;;;49.75;41.25;;;;;21.68;49.33;101150.81;6304051;22;44622;-89
2021/09/13 09:24:49;;;;;;;;;61.75;49.75;;;;;21.89;48.84;101171.34;6271191;22;44797;-90
2021/09/13 09:27:20;;;;;;;;;63.00;51.25;;;;;21.76;49.48;101139.28;6269440;22;45059;-92
2021/09/13 09:29:54;;;;;;;;;62.00;51.25;;;;;22.18;49.41;101200.03;6273069;22;44713;-94
2021/09/13 09:32:24;;;;;;;;;54.00;46.00;;;;;22.25;48.73;101191.25;6226742;22;45989;-93
2021/09/13 09:35:23;;;;;;;;;66.60;52.80;;;;;22.31;48.96;101198.75;6333553;22;44791;-94
2021/09/13 09:37:55;;;;;;;;;57.50;48.25;;;;;21.94;48.87;101130.25;6328273;22;44984;-92
2021/09/13 09:40:28;;;;;;;;;;;;;;;22.37;48.60;101190.00;6312234;22;44721;-91
2021/09/13 09:42:55;;;;;;;;;48.40;42.00;;;;;22.13;48.38;101133.81;6305851;22;44751;-92
2021/09/13 09:45:26;;;;;;;;;61.50;50.25;;;;;22.53;48.48;101188.41;6277362;22;44828;-91
2021/09/13 09:48:10;;;;;;;;;;;;;;;22.64;48.49;101198.16;6308286;22;45130;-91
2021/09/13 09:50:37;;;;;;;;;67.25;56.25;;;;;22.45;48.23;101151.28;6305292;22;44698;-90
2021/09/13 09:53:22;;;;;;;;;59.50;49.00;;;;;22.37;47.98;101126.84;6284230;22;44670;-91
2021/09/13 09:55:52;;;;;;;;;33.75;30.75;;;;;22.51;48.17;101131.69;6314134;22;44732;-91
2021/09/13 09:58:19;;;;;;;;;55.25;45.75;;;;;22.99;47.98;101187.34;6272236;22;45118;-93
2021/09/13 10:00:59;;;;;;;;;57.50;47.75;;;;;22.56;46.97;101101.41;6247040;22;44690;-89
2021/09/13 10:03:30;;;;;;;;;49.25;41.75;;;;;23.01;47.65;101161.78;6312629;22;44872;-91
2021/09/13 10:06:21;;;;;;;;;;;;;;;;;;;;;
2021/09/13 10:09:00;;;;;;;;;57.80;47.60;;;;;22.96;47.69;101145.13;6340945;22;74586;-93
2021/09/13 10:11:42;;;;;;;;;;;;;;;;;;;;;
2021/09/13 10:14:21;;;;;;;;;92.25;89.25;;;;;22.60;48.00;101059.44;6284156;22;44740;-92
2021/09/13 10:16:54;;;;;;;;;60.00;49.75;;;;;23.14;48.00;101128.78;6301002;22;44969;-90
2021/09/13 10:19:23;;;;;;;;;56.20;47.20;;;;;22.80;47.88;101068.16;6327025;22;45833;-92
2021/09/13 10:21:58;;;;;;;;;62.25;50.75;;;;;22.91;47.67;101077.03;6300440;22;44617;-91
2021/09/13 10:24:32;;;;;;;;;61.00;54.33;;;;;22.93;46.74;101066.84;6301172;22;44690;-91
2021/09/13 10:27:25;;;;;;;;;51.50;43.00;;;;;22.94;47.26;101063.97;6351932;22;44865;-91
2021/09/13 10:30:42;;;;;;;;;57.25;46.75;;;;;23.17;47.15;101098.63;6328820;22;44995;-92
2021/09/13 10:33:40;;;;;;;;;58.00;48.75;;;;;23.47;47.58;101129.88;6315828;22;44749;-93
2021/09/13 11:17:32;;;;;;;;;67.00;60.33;;;;;24.18;45.70;101078.69;6303876;22;46028;-92
2021/09/13 11:20:22;;;;;;;;;;;;;;;;;;;;;
2021/09/13 11:22:55;;;;;;;;;137.20;137.20;;;;;23.97;45.53;101049.34;6373418;22;74579;-92
2021/09/13 11:25:27;;;;;;;;;107.60;106.60;;;;;24.06;45.39;101059.13;6318862;22;44713;-92
2021/09/13 11:28:58;;;;;;;;;27.00;26.83;;;;;23.94;45.82;101033.38;6335971;22;44712;-94
2021/09/13 11:32:13;;;;;;;;;116.67;116.67;;;;;24.23;45.12;101075.44;6239773;22;44797;-91
2021/09/13 11:58:01;;;;;;;;;157.50;157.50;;;;;24.83;44.10;101056.88;6302701;22;46001;-96
2021/09/13 12:00:38;;;;;;;;;149.00;149.00;;;;;24.96;44.95;101063.66;6338994;22;44725;-95
2021/09/13 12:03:18;;;;;;;;;143.17;143.17;;;;;24.80;44.46;101030.03;6242370;22;44850;-94
2021/09/13 12:06:32;;;;;;;;;;;;;;;;;;;;;
2021/09/13 12:09:13;;;;;;;;;143.40;143.40;;;;;24.96;45.30;101036.44;6263946;22;72261;-95
2021/09/13 12:12:14;;;;;;;;;140.67;140.33;;;;;24.96;45.15;101018.25;6241598;22;44799;-94
2021/09/13 12:15:13;;;;;;;;;154.40;154.40;;;;;24.93;44.80;101010.44;6219752;22;44841;-93
2021/09/13 12:17:52;;;;;;;;;140.80;140.80;;;;;25.10;44.74;101034.81;6248810;22;45255;-93
2021/09/13 12:20:34;;;;;;;;;164.00;163.43;;;;;25.13;44.64;101036.34;6204534;22;44667;-93
2021/09/13 12:23:06;;;;;;;;;140.40;140.40;;;;;25.14;45.07;101029.84;6239681;22;44814;-93
2021/09/13 12:26:03;;;;;;;;;152.67;152.67;;;;;25.19;44.59;101022.84;6214350;22;44879;-94
2021/09/13 12:28:35;;;;;;;;;131.60;131.60;;;;;25.44;44.03;101022.66;6263715;22;45097;-93
2021/09/13 12:31:07;;;;;;;;;153.40;153.20;;;;;25.76;44.08;101024.47;6242534;22;44810;-93
2021/09/13 12:33:53;;;;;;;;;149.50;149.50;;;;;26.03;43.76;101030.31;6213816;22;44910;-92
2021/09/13 12:37:04;;;;;;;;;155.80;155.80;;;;;26.16;43.75;101002.41;6242199;22;44942;-94
2021/09/13 12:40:04;;;;;;;;;144.67;144.67;;;;;26.38;43.37;101023.28;6251941;22;45201;-95
2021/09/13 12:42:53;;;;;;;;;;;;;;;26.39;43.43;101021.41;6344083;22;44712;-93
2021/09/13 12:45:26;;;;;;;;;158.83;158.83;;;;;26.35;43.46;101014.66;6331611;22;44736;-94
2021/09/13 12:48:07;;;;;;;;;165.40;165.40;;;;;26.34;43.05;101010.25;6286214;22;44865;-94
2021/09/13 12:50:51;;;;;;;;;157.00;157.00;;;;;26.04;43.52;100993.84;6336059;22;45496;-94
2021/09/13 12:53:43;;;;;;;;;140.80;139.80;;;;;25.92;43.69;100996.22;6262350;22;44768;-93
2021/09/13 12:56:44;;;;;;;;;159.00;159.00;;;;;25.83;43.76;100990.84;6243785;22;44857;-92
2021/09/13 12:59:30;;;;;;;;;143.83;143.83;;;;;25.80;43.43;100964.00;6227897;22;44996;-94
2021/09/13 13:02:13;;;;;;;;;141.00;140.67;;;;;25.99;43.36;100962.59;6269459;22;45329;-94
2021/09/13 13:04:57;;;;;;;;;153.67;153.67;;;;;26.21;43.21;100972.75;6248399;22;44637;-94
2021/09/13 13:08:07;;;;;;;;;;;;;;;;;;;;;
2021/09/13 13:10:49;;;;;;;;;29.17;29.17;;;;;26.30;43.31;100979.78;6277184;22;44996;-95
2021/09/13 13:17:38;;;;;;;;;;;;;;;;;;;;;
2021/09/13 13:20:09;;;;;;;;;157.20;157.20;;;;;26.42;43.74;100962.94;6295498;22;44825;-94
2021/09/13 13:22:37;;;;;;;;;34.67;32.17;;;;;26.39;43.32;100953.28;6270904;22;44859;-94
2021/09/13 13:25:28;;;;;;;;;156.17;156.17;;;;;26.53;43.25;100939.81;6256025;22;45156;-93
2021/09/13 13:28:24;;;;;;;;;54.86;46.00;;;;;26.47;42.88;100922.34;6363603;22;45139;-90
2021/09/13 13:31:15;;;;;;;;;152.50;152.50;;;;;26.67;42.91;100946.25;6312888;22;45679;-94
2021/09/13 13:33:48;;;;;;;;;153.67;152.83;;;;;26.59;42.85;100928.13;6341854;22;44844;-92
2021/09/13 13:36:14;;;;;;;;;163.17;162.83;;;;;26.65;42.71;100927.34;6307747;22;45063;-92
2021/09/13 13:38:40;;;;;;;;;170.83;170.83;;;;;26.52;42.43;100910.84;6308929;22;44871;-93
2021/09/13 13:41:11;;;;;;;;;159.00;159.00;;;;;26.66;42.69;100941.84;6312983;22;44779;-93
2021/09/13 13:43:40;;;;;;;;;158.40;157.80;;;;;26.62;42.85;100950.41;6289735;22;44801;-92
2021/09/13 13:46:12;;;;;;;;;148.83;148.83;;;;;26.44;43.12;100929.00;6223969;22;45657;-94
2021/09/13 13:52:00;;;;;;;;;56.00;47.00;;;;;26.59;43.23;100947.19;6354763;22;45709;-95
2021/09/13 13:54:55;;;;;;;;;66.00;56.67;;;;;26.50;42.72;100927.41;6384645;22;44738;-94
2021/09/13 14:00:55;;;;;;;;;;;;;;;;;;;;;
2021/09/13 14:11:29;;;;;;;;;169.80;169.80;;;;;26.98;41.97;100931.50;6331168;22;44790;-95
2021/09/13 14:13:58;;;;;;;;;;;;;;;27.06;41.46;100934.09;6277965;22;44701;-91
2021/09/13 14:19:25;;;;;;;;;165.67;165.67;;;;;27.08;40.75;100914.78;6151564;23;45096;-93
2021/09/13 14:22:02;;;;;;;;;159.40;158.80;;;;;27.17;40.82;100921.78;6149834;23;44735;-91
2021/09/13 14:24:31;;;;;;;;;166.40;166.40;;;;;27.23;40.97;100931.06;6170687;23;44866;-92
2021/09/13 14:30:00;;;;;;;;;;;;;;;27.50;40.74;100925.81;6131695;23;45502;-93
2021/09/13 14:40:13;;;;;;;;;;;;;;;27.93;39.50;100913.06;6344340;22;45413;-91
2021/09/13 14:42:40;;;;;;;;;155.50;155.50;;;;;27.58;40.15;100884.69;6299278;22;44726;-88
2021/09/13 14:47:38;;;;;;;;;166.17;165.67;;;;;27.44;40.78;100882.94;5145824;27;44891;-88
2021/09/13 14:50:05;;;;;;;;;;;;;;;27.55;40.86;100920.59;5081166;27;44899;-91
2021/09/13 14:52:34;;;;;;;;;136.33;136.00;;;;;27.35;40.42;100866.72;5094208;27;44898;-89
2021/09/13 14:54:59;;;;;;;;;;;;;;;27.69;40.95;100912.53;5069339;27;44824;-90
2021/09/13 14:57:27;;;;;;;;;150.60;150.40;;;;;27.29;40.59;100874.84;5091718;27;45596;-93
2021/09/13 14:59:55;;;;;;;;;;;;;;;27.50;40.72;100915.72;5068327;27;44877;-89
2021/09/13 15:02:21;;;;;;;;;;;;;;;27.41;41.23;100911.47;5099150;27;44848;-89
2021/09/13 15:04:49;;;;;;;;;;;;;;;27.33;41.39;100904.28;5109820;27;44877;-88
2021/09/13 15:13:34;;;;;;;;;153.20;153.20;;;;;27.34;41.24;100880.56;5089348;22;45044;-87
2021/09/13 15:16:00;;;;;;;;;;;;;;;27.71;41.15;100894.03;4993486;28;44975;-89
2021/09/13 15:18:56;;;;;;;;;145.60;145.60;;;;;27.81;40.17;100885.50;5389980;23;45785;-93
2021/09/13 15:21:22;;;;;;;;;67.80;58.40;;;;;27.76;40.35;100886.09;4995266;28;45113;-90
2021/09/13 15:23:48;;;;;;;;;154.50;152.75;;;;;27.82;40.87;100906.28;4975359;28;44874;-92
2021/09/13 15:26:30;;;;;;;;;144.17;144.17;;;;;27.59;41.02;100889.09;5256966;22;45861;-94
2021/09/13 15:29:10;;;;;;;;;;;;;;;;;;;;;
2021/09/13 15:31:37;;;;;;;;;164.17;164.00;;;;;27.77;40.29;100865.91;5035265;28;72143;-92
2021/09/13 15:34:02;;;;;;;;;156.17;156.17;;;;;28.08;39.51;100866.47;5056727;28;44817;-89
2021/09/13 15:36:28;;;;;;;;;;;;;;;28.58;39.92;100899.00;5040036;28;44877;-89
2021/09/13 15:38:56;;;;;;;;;141.20;141.20;;;;;28.72;38.94;100894.41;5050927;28;45030;-92
2021/09/13 15:41:25;;;;;;;;;;;;;;;28.81;39.35;100900.50;5043737;28;44815;-93
2021/09/13 15:44:10;;;;;;;;;153.17;153.17;;;;;28.24;39.25;100836.03;5058001;28;44823;-93
2021/09/13 15:46:46;;;;;;;;;;;;;;;;;;;;;
2021/09/13 15:49:28;;;;;;;;;;;;;;;28.37;39.21;100903.63;5048968;28;74907;-92
2021/09/13 15:51:58;;;;;;;;;150.00;150.00;;;;;27.95;39.33;100873.59;5075793;27;44849;-93
2021/09/13 15:54:24;;;;;;;;;155.33;155.33;;;;;28.01;39.77;100900.06;5021490;28;44862;-91
2021/09/13 16:00:09;;;;;;;;;154.00;154.00;;;;;27.18;40.31;100827.13;4970975;28;45192;-89
2021/09/13 16:02:38;;;;;;;;;151.67;151.67;;;;;27.23;40.72;100877.34;4958397;28;44879;-87
2021/09/13 16:05:05;;;;;;;;;151.67;149.67;;;;;26.80;40.18;100831.84;4961390;28;44900;-88
2021/09/13 16:07:31;;;;;;;;;156.67;156.67;;;;;26.87;40.74;100868.22;4945645;28;45047;-86
2021/09/13 16:09:56;;;;;;;;;54.17;46.00;;;;;26.80;41.36;100872.75;4957844;28;45181;-90
2021/09/13 16:12:24;;;;;;;;;161.67;161.67;;;;;26.86;41.42;100876.59;4960060;28;44875;-89
2021/09/13 16:14:52;;;;;;;;;144.80;144.80;;;;;26.53;40.98;100836.22;4960198;28;44845;-89
2021/09/13 16:17:18;;;;;;;;;;;;;;;26.75;41.52;100873.34;4977927;28;44768;-88
2021/09/13 16:19:45;;;;;;;;;138.80;138.40;;;;;26.42;41.65;100832.13;4995122;28;45462;-90
2021/09/13 16:22:15;;;;;;;;;163.50;162.33;;;;;26.42;41.84;100823.94;4955328;28;44845;-89
2021/09/13 16:24:43;;;;;;;;;;;;;;;26.74;41.54;100874.38;4965518;28;44812;-88
2021/09/13 16:27:09;;;;;;;;;141.83;141.83;;;;;26.77;41.37;100875.88;4963213;28;45016;-88
2021/09/13 16:29:36;;;;;;;;;138.17;138.17;;;;;26.70;41.15;100869.53;4961874;28;45135;-88
2021/09/13 16:32:02;;;;;;;;;153.33;153.17;;;;;26.34;41.77;100822.22;4944588;28;44995;-87
2021/09/13 16:34:28;;;;;;;;;;;;;;;26.63;41.62;100875.75;4976426;28;44701;-89
2021/09/13 16:36:53;;;;;;;;;146.00;146.00;;;;;26.50;42.32;100862.81;5034515;28;44909;-89
2021/09/13 16:39:21;;;;;;;;;145.40;145.40;;;;;26.14;41.92;100803.72;5024400;28;45071;-90
2021/09/13 16:41:49;;;;;;;;;137.67;137.67;;;;;26.48;42.21;100870.38;5016260;28;44862;-89
2021/09/13 16:44:15;;;;;;;;;;;;;;;26.42;42.53;100873.00;5032089;28;44817;-88
2021/09/13 16:46:46;;;;;;;;;97.20;96.40;;;;;26.05;42.60;100823.97;5051992;28;44955;-93
2021/09/13 16:49:27;;;;;;;;;151.17;151.17;;;;;26.03;42.31;100818.69;5052150;28;45261;-91
2021/09/13 16:51:54;;;;;;;;;;;;;;;26.25;42.32;100868.59;5029691;28;44743;-91
2021/09/13 16:54:23;;;;;;;;;147.60;147.60;;;;;26.20;43.09;100875.66;5050479;28;44773;-91
2021/09/13 16:56:51;;;;;;;;;149.83;149.83;;;;;26.15;42.89;100878.13;5016200;28;44851;-91
2021/09/13 16:59:24;;;;;;;;;153.50;153.50;;;;;25.47;42.65;100782.78;5017026;28;45270;-91
2021/09/13 17:02:22;;;;;;;;;153.80;153.60;;;;;25.96;42.78;100875.78;5021013;28;44799;-95
2021/09/13 17:04:50;;;;;;;;;147.33;147.33;;;;;25.93;43.29;100875.34;5019483;28;44857;-91
2021/09/13 17:07:20;;;;;;;;;136.80;136.80;;;;;25.89;43.45;100877.59;5018511;28;45016;-93
2021/09/13 17:10:12;;;;;;;;;;;;;;;25.72;43.26;100864.19;5033946;28;45197;-93
2021/09/13 17:13:02;;;;;;;;;146.80;145.20;;;;;25.51;43.50;100848.59;5088347;28;44846;-92
2021/09/13 17:55:43;;;;;;;;;135.50;135.17;;;;;24.66;45.37;100811.47;6314684;22;45709;-92
2021/09/13 18:03:26;;;;;;;;;136.00;135.67;;;;;24.62;45.97;100833.75;6402681;22;45521;-92
2021/09/13 19:20:31;;;;;;;;;;;;;;;;;;;;;
2021/09/13 19:23:36;;;;;;;;;97.40;93.20;;;;;23.51;49.29;100811.09;6163377;23;67930;-89
2021/09/13 19:26:54;;;;;;;;;101.33;100.33;;;;;23.56;49.28;100830.41;6170513;23;44795;-90
2021/09/13 19:29:27;;;;;;;;;120.17;118.83;;;;;23.74;49.20;100867.31;6142960;23;45320;-89
2021/09/13 19:32:28;;;;;;;;;;;;;;;23.71;48.89;100860.38;6129752;23;44719;-91
2021/09/13 19:35:31;;;;;;;;;45.50;38.75;;;;;23.68;49.52;100845.28;6171748;23;44803;-91
2021/09/13 19:41:49;;;;;;;;;114.50;114.33;;;;;23.37;49.79;100813.50;6097548;23;45565;-90
2021/09/13 19:44:23;;;;;;;;;62.80;56.00;;;;;23.43;49.87;100828.25;6089640;23;44804;-90
2021/09/13 19:47:20;;;;;;;;;32.50;31.33;;;;;23.51;50.22;100854.50;6086207;23;45397;-90
2021/09/13 20:37:58;;;;;;;;;152.80;152.80;;;;;22.88;51.64;100793.59;5929245;22;7188502;-91
2021/09/13 20:40:25;;;;;;;;;153.20;152.60;;;;;22.92;51.43;100792.22;6234650;22;44706;-92
2021/09/13 20:42:58;;;;;;;;;122.17;121.33;;;;;22.75;51.65;100764.28;6188491;22;45367;-93
2021/09/13 20:45:27;;;;;;;;;72.00;67.00;;;;;22.76;51.94;100760.56;6214484;22;44738;-91
2021/09/13 20:48:02;;;;;;;;;42.20;36.40;;;;;23.09;52.28;100810.31;6216065;22;44743;-92
2021/09/13 20:50:29;;;;;;;;;64.33;58.33;;;;;22.62;51.98;100743.13;6217229;22;44875;-92
2021/09/13 20:52:58;;;;;;;;;64.83;58.50;;;;;23.05;51.98;100804.38;6243863;22;45053;-92
2021/09/13 20:55:24;;;;;;;;;;;;;;;23.02;52.44;100783.91;6250893;22;44745;-92
2021/09/13 20:57:59;;;;;;;;;59.33;48.67;;;;;22.56;52.20;100716.69;6246185;22;44743;-90
2021/09/13 21:00:29;;;;;;;;;54.75;45.75;;;;;22.56;52.47;100714.84;6244851;22;44769;-92
2021/09/13 21:03:05;;;;;;;;;46.80;39.00;;;;;22.93;52.49;100790.34;6242180;22;45202;-93
2021/09/13 21:05:57;;;;;;;;;52.60;44.20;;;;;22.89;52.47;100802.53;6246421;22;44770;-92
2021/09/13 21:19:17;;;;;;;;;46.25;40.00;;;;;22.81;52.77;100804.25;6241760;22;44791;-92
2021/09/13 21:21:46;;;;;;;;;53.25;45.25;;;;;22.81;52.77;100804.25;6223134;22;44906;-93
2021/09/13 21:24:49;;;;;;;;;60.75;49.25;;;;;22.59;52.79;100772.41;6243468;22;45101;-91
2021/09/13 21:27:32;;;;;;;;;51.75;44.00;;;;;22.41;52.92;100751.72;6250714;22;44784;-92
2021/09/13 21:30:07;;;;;;;;;45.20;39.00;;;;;22.70;53.00;100793.75;6244834;22;44821;-93
2021/09/13 21:33:37;;;;;;;;;;;;;;;;;;;;;
2021/09/13 21:36:18;;;;;;;;;63.40;51.80;;;;;22.39;53.13;100740.22;6139194;23;74694;-92
2021/09/13 21:38:58;;;;;;;;;46.00;39.20;;;;;22.67;53.11;100802.22;6118509;23;44830;-92
2021/09/13 21:41:55;;;;;;;;;;;;;;;;;;;;;
2021/09/13 21:45:15;;;;;;;;;;;;;;;;;;;;;
2021/09/13 21:48:05;;;;;;;;;;;;;;;;;;;;;
2021/09/13 22:33:41;;;;;;;;;;;;;;;22.79;52.55;100789.16;6211623;22;44978;-92
2021/09/13 22:36:22;;;;;;;;;36.25;33.25;;;;;22.69;52.92;100767.69;6236378;22;44842;-92
2021/09/13 22:38:48;;;;;;;;;52.75;44.50;;;;;22.48;52.89;100744.63;6238707;22;44773;-92
2021/09/13 22:42:10;;;;;;;;;48.50;41.25;;;;;22.83;52.69;100800.53;6209750;22;45173;-94
2021/09/13 22:49:16;;;;;;;;;41.50;36.25;;;;;22.73;53.04;100790.69;6167918;22;44790;-92
2021/09/13 22:52:24;;;;;;;;;;;;;;;;;;;;;
2021/09/13 22:55:58;;;;;;;;;54.25;45.25;;;;;22.23;53.22;100708.56;6058838;23;44926;-91
2021/09/13 22:58:30;;;;;;;;;38.00;34.25;;;;;22.39;53.38;100751.06;5970147;23;44725;-92
2021/09/13 23:04:36;;;;;;;;;27.60;27.60;;;;;22.36;53.21;100735.16;5965479;23;44863;-93
2021/09/13 23:07:13;;;;;;;;;;;;;;;;;;;;;
2021/09/13 23:09:45;;;;;;;;;48.00;40.60;;;;;22.70;53.45;100788.31;5943857;23;72145;-93
2021/09/13 23:12:49;;;;;;;;;;;;;;;;;;;;;
2021/09/13 23:15:31;;;;;;;;;;;;;;;;;;;;;
2021/09/13 23:17:58;;;;;;;;;61.75;50.50;;;;;22.43;53.44;100731.56;5946290;23;74933;-91
2021/09/13 23:20:33;;;;;;;;;54.50;46.00;;;;;22.34;54.00;100718.22;5970803;23;44759;-92
2021/09/13 23:22:59;;;;;;;;;54.50;45.75;;;;;22.70;53.43;100780.19;5930097;23;44729;-91
2021/09/13 23:25:28;;;;;;;;;51.00;43.75;;;;;22.51;53.19;100759.69;5972641;23;44787;-92
2021/09/13 23:27:58;;;;;;;;;48.00;40.40;;;;;22.34;53.68;100724.47;6027022;23;45440;-91
2021/09/13 23:30:39;;;;;;;;;;;;;;;;;;;;;
2021/09/13 23:33:18;;;;;;;;;48.50;41.25;;;;;22.56;53.44;100732.94;6017592;23;44780;-91
2021/09/13 23:35:47;;;;;;;;;58.00;47.00;;;;;22.70;53.24;100753.09;6083357;23;44962;-91
2021/09/13 23:38:24;;;;;;;;;47.00;40.00;;;;;22.63;53.56;100739.41;6136623;23;45254;-92
2021/09/13 23:40:53;;;;;;;;;55.80;46.80;;;;;22.42;53.49;100712.81;6091441;23;44835;-92
2021/09/13 23:46:53;;;;;;;;;;;;;;;;;;;;;
2021/09/13 23:52:52;;;;;;;;;;;;;;;;;;;;;
2021/09/13 23:55:56;;;;;;;;;;;;;;;;;;;;;
2021/09/13 23:59:53;;;;;;;;;;;;;;;;;;;;;
